createdAt,value
2018-10-18T00:00:07.534Z,95.46
2018-10-18T00:01:07.441Z,95.56
2018-10-18T00:02:07.446Z,95.84
2018-10-18T00:03:07.376Z,95.70
2018-10-18T00:04:07.292Z,95.56
2018-10-18T00:05:07.244Z,95.46
2018-10-18T00:06:07.264Z,95.65
2018-10-18T00:07:07.147Z,96.22
2018-10-18T00:08:07.148Z,95.46
2018-10-18T00:09:07.048Z,95.46
2018-10-18T00:10:07.006Z,95.07
2018-10-18T00:11:06.953Z,95.36
2018-10-18T00:12:06.922Z,95.46
2018-10-18T00:13:06.876Z,95.56
2018-10-18T00:14:06.911Z,95.36
2018-10-18T00:15:06.753Z,95.56
2018-10-18T00:16:06.708Z,95.46
2018-10-18T00:17:06.661Z,96.32
2018-10-18T00:18:06.640Z,95.36
2018-10-18T00:19:06.559Z,95.46
2018-10-18T00:20:06.585Z,95.36
2018-10-18T00:21:06.460Z,95.36
2018-10-18T00:22:06.408Z,95.46
2018-10-18T00:23:06.400Z,95.56
2018-10-18T00:24:06.383Z,95.46
2018-10-18T00:25:06.265Z,95.75
2018-10-18T00:26:06.310Z,95.56
2018-10-18T00:27:06.167Z,95.56
2018-10-18T00:28:06.118Z,95.56
2018-10-18T00:29:06.090Z,95.94
2018-10-18T00:30:06.047Z,95.56
2018-10-18T00:31:05.983Z,95.56
2018-10-18T00:32:05.988Z,96.13
2018-10-18T00:33:05.872Z,95.27
2018-10-18T00:34:05.851Z,95.07
2018-10-18T00:35:05.775Z,96.42
2018-10-18T00:36:05.788Z,95.75
2018-10-18T00:37:05.681Z,95.46
2018-10-18T00:38:05.752Z,96.42
2018-10-18T00:39:05.601Z,96.13
2018-10-18T00:40:05.531Z,96.42
2018-10-18T00:41:05.482Z,95.56
2018-10-18T00:42:05.504Z,95.94
2018-10-18T00:43:05.390Z,95.65
2018-10-18T00:44:05.418Z,95.27
2018-10-18T00:45:05.285Z,96.22
2018-10-18T00:46:05.234Z,96.32
2018-10-18T00:47:05.186Z,96.51
2018-10-18T00:48:05.213Z,96.37
2018-10-18T00:49:05.127Z,96.47
2018-10-18T00:50:05.207Z,96.13
2018-10-18T00:51:04.994Z,96.18
2018-10-18T00:52:04.943Z,96.42
2018-10-18T00:53:04.896Z,96.27
2018-10-18T00:54:04.915Z,96.32
2018-10-18T00:55:04.818Z,96.32
2018-10-18T00:56:04.782Z,96.27
2018-10-18T00:57:04.703Z,96.37
2018-10-18T00:58:04.644Z,96.56
2018-10-18T00:59:04.603Z,96.56
2018-10-18T01:00:04.614Z,96.84
2018-10-18T01:01:04.503Z,97.04
2018-10-18T01:02:04.473Z,97.13
2018-10-18T01:03:04.401Z,97.04
2018-10-18T01:04:04.352Z,96.84
2018-10-18T01:05:04.331Z,97.23
2018-10-18T01:06:04.334Z,97.42
2018-10-18T01:07:04.205Z,97.04
2018-10-18T01:08:04.170Z,96.84
2018-10-18T01:09:04.110Z,97.13
2018-10-18T01:10:04.083Z,97.13
2018-10-18T01:11:04.005Z,97.33
2018-10-18T01:12:04.038Z,97.13
2018-10-18T01:13:03.911Z,97.23
2018-10-18T01:14:03.942Z,97.33
2018-10-18T01:15:03.875Z,97.23
2018-10-18T01:16:03.769Z,97.42
2018-10-18T01:17:03.709Z,97.13
2018-10-18T01:18:03.719Z,97.90
2018-10-18T01:19:03.615Z,97.80
2018-10-18T01:20:03.614Z,97.80
2018-10-18T01:21:03.519Z,98.09
2018-10-18T01:22:03.466Z,97.56
2018-10-18T01:23:03.415Z,97.80
2018-10-18T01:24:03.421Z,97.90
2018-10-18T01:25:03.389Z,98.00
2018-10-18T01:26:03.285Z,97.37
2018-10-18T01:27:03.221Z,97.71
2018-10-18T01:28:03.171Z,97.61
2018-10-18T01:29:03.122Z,98.28
2018-10-18T01:30:03.088Z,97.56
2018-10-18T01:31:03.044Z,97.95
2018-10-18T01:32:03.002Z,97.75
2018-10-18T01:33:02.925Z,98.04
2018-10-18T01:34:02.874Z,97.95
2018-10-18T01:35:02.827Z,97.75
2018-10-18T01:36:02.819Z,97.66
2018-10-18T01:37:02.724Z,97.37
2018-10-18T01:38:02.723Z,98.24
2018-10-18T01:39:02.629Z,98.04
2018-10-18T01:40:02.577Z,98.33
2018-10-18T01:41:02.565Z,97.95
2018-10-18T01:42:02.551Z,98.24
2018-10-18T01:43:02.432Z,98.33
2018-10-18T01:44:02.394Z,98.52
2018-10-18T01:45:02.338Z,99.10
2018-10-18T01:46:02.307Z,99.00
2018-10-18T01:47:02.233Z,98.33
2018-10-18T01:48:02.250Z,98.14
2018-10-18T01:49:02.134Z,98.24
2018-10-18T01:50:02.162Z,98.14
2018-10-18T01:51:02.058Z,98.81
2018-10-18T01:52:01.990Z,98.71
2018-10-18T01:53:01.969Z,98.61
2018-10-18T01:54:01.936Z,98.61
2018-10-18T01:55:01.844Z,98.52
2018-10-18T01:56:01.897Z,98.81
2018-10-18T01:57:01.738Z,98.90
2018-10-18T01:58:01.688Z,98.81
2018-10-18T01:59:01.644Z,98.90
2018-10-18T02:00:01.640Z,98.61
2018-10-18T02:01:01.543Z,98.90
2018-10-18T02:02:01.580Z,98.24
2018-10-18T02:03:01.461Z,98.52
2018-10-18T02:04:01.396Z,98.90
2018-10-18T02:05:01.343Z,98.43
2018-10-18T02:06:01.349Z,98.81
2018-10-18T02:07:01.270Z,99.00
2018-10-18T02:08:01.243Z,98.71
2018-10-18T02:09:01.144Z,98.71
2018-10-18T02:10:01.099Z,98.61
2018-10-18T02:11:01.045Z,98.61
2018-10-18T02:12:01.039Z,98.90
2018-10-18T02:13:00.946Z,98.43
2018-10-18T02:14:00.895Z,98.43
2018-10-18T02:15:00.848Z,98.71
2018-10-18T02:16:00.826Z,98.52
2018-10-18T02:17:00.778Z,98.90
2018-10-18T02:18:00.699Z,99.10
2018-10-18T02:19:00.676Z,98.90
2018-10-18T02:20:00.604Z,99.10
2018-10-18T02:21:00.549Z,99.10
2018-10-18T02:22:00.527Z,99.29
2018-10-18T02:23:00.456Z,99.19
2018-10-18T02:24:00.456Z,99.10
2018-10-18T02:25:00.364Z,99.29
2018-10-18T02:26:00.299Z,99.76
2018-10-18T02:27:00.282Z,99.76
2018-10-18T02:28:00.205Z,99.86
2018-10-18T02:29:00.156Z,99.76
2018-10-18T02:30:00.114Z,99.67
2018-10-18T02:31:00.054Z,99.57
2018-10-18T02:32:00.034Z,99.52
2018-10-18T02:32:59.956Z,99.48
2018-10-18T02:33:59.921Z,99.52
2018-10-18T02:34:59.853Z,99.99
2018-10-18T02:35:59.834Z,99.62
2018-10-18T02:36:59.782Z,99.99
2018-10-18T02:37:59.712Z,99.62
2018-10-18T02:38:59.659Z,99.62
2018-10-18T02:39:59.610Z,99.90
2018-10-18T02:40:59.560Z,99.99
2018-10-18T02:41:59.569Z,99.99
2018-10-18T02:42:59.463Z,99.90
2018-10-18T02:43:59.411Z,99.99
2018-10-18T02:44:59.360Z,99.99
2018-10-18T02:45:59.312Z,99.99
2018-10-18T02:46:59.287Z,99.52
2018-10-18T02:47:59.283Z,99.99
2018-10-18T02:48:59.163Z,99.99
2018-10-18T02:49:59.109Z,99.71
2018-10-18T02:50:59.063Z,99.43
2018-10-18T02:51:59.058Z,99.90
2018-10-18T02:52:58.973Z,99.52
2018-10-18T02:53:58.916Z,99.52
2018-10-18T02:54:58.866Z,99.99
2018-10-18T02:55:58.813Z,99.71
2018-10-18T02:56:58.767Z,99.99
2018-10-18T02:57:58.737Z,99.99
2018-10-18T02:58:58.662Z,99.99
2018-10-18T02:59:58.636Z,99.90
2018-10-18T03:00:58.570Z,99.99
2018-10-18T03:01:58.554Z,99.99
2018-10-18T03:02:58.492Z,99.99
2018-10-18T03:03:58.421Z,99.99
2018-10-18T03:04:58.365Z,99.99
2018-10-18T03:05:58.329Z,99.99
2018-10-18T03:06:58.269Z,99.99
2018-10-18T03:07:58.245Z,99.90
2018-10-18T03:08:58.173Z,99.99
2018-10-18T03:09:58.121Z,99.99
2018-10-18T03:10:58.073Z,99.99
2018-10-18T03:11:58.039Z,99.99
2018-10-18T03:12:58.022Z,99.38
2018-10-18T03:13:57.922Z,99.10
2018-10-18T03:14:57.876Z,99.76
2018-10-18T03:15:57.939Z,99.48
2018-10-18T03:16:57.777Z,99.57
2018-10-18T03:17:57.793Z,99.52
2018-10-18T03:18:57.675Z,99.67
2018-10-18T03:19:57.625Z,99.24
2018-10-18T03:20:57.576Z,99.86
2018-10-18T03:21:57.527Z,99.57
2018-10-18T03:22:57.499Z,99.38
2018-10-18T03:23:57.440Z,99.48
2018-10-18T03:24:57.377Z,99.57
2018-10-18T03:25:57.346Z,99.38
2018-10-18T03:26:57.281Z,99.29
2018-10-18T03:27:57.258Z,99.57
2018-10-18T03:28:57.185Z,99.76
2018-10-18T03:29:57.158Z,99.76
2018-10-18T03:30:57.079Z,99.29
2018-10-18T03:31:57.036Z,99.48
2018-10-18T03:32:56.982Z,99.00
2018-10-18T03:33:56.961Z,99.10
2018-10-18T03:34:56.891Z,99.00
2018-10-18T03:35:56.868Z,99.10
2018-10-18T03:36:56.786Z,99.29
2018-10-18T03:37:56.737Z,98.81
2018-10-18T03:38:56.729Z,98.71
2018-10-18T03:39:56.638Z,98.71
2018-10-18T03:40:56.590Z,98.71
2018-10-18T03:41:56.574Z,98.71
2018-10-18T03:42:56.483Z,98.33
2018-10-18T03:43:56.460Z,98.90
2018-10-18T03:44:56.391Z,98.43
2018-10-18T03:45:56.337Z,98.61
2018-10-18T03:46:56.287Z,98.33
2018-10-18T03:47:56.321Z,98.43
2018-10-18T03:48:56.216Z,98.81
2018-10-18T03:49:56.150Z,98.52
2018-10-18T03:50:56.096Z,98.61
2018-10-18T03:51:56.043Z,98.61
2018-10-18T03:52:55.994Z,98.90
2018-10-18T03:53:55.987Z,97.95
2018-10-18T03:54:55.896Z,98.81
2018-10-18T03:55:55.850Z,98.81
2018-10-18T03:56:55.799Z,98.47
2018-10-18T03:57:55.750Z,98.14
2018-10-18T03:58:55.725Z,98.24
2018-10-18T03:59:55.702Z,97.95
2018-10-18T04:00:55.601Z,98.76
2018-10-18T04:01:55.552Z,98.47
2018-10-18T04:02:55.503Z,98.28
2018-10-18T04:03:55.488Z,98.38
2018-10-18T04:04:55.406Z,98.76
2018-10-18T04:05:55.386Z,98.38
2018-10-18T04:06:55.308Z,98.28
2018-10-18T04:07:55.257Z,98.19
2018-10-18T04:08:55.209Z,98.28
2018-10-18T04:09:55.187Z,98.09
2018-10-18T04:10:55.105Z,98.47
2018-10-18T04:11:55.097Z,97.80
2018-10-18T04:12:55.042Z,98.00
2018-10-18T04:13:54.960Z,97.90
2018-10-18T04:14:54.937Z,97.61
2018-10-18T04:15:54.865Z,98.00
2018-10-18T04:16:54.811Z,98.00
2018-10-18T04:17:54.829Z,97.90
2018-10-18T04:18:54.713Z,97.80
2018-10-18T04:19:54.692Z,98.47
2018-10-18T04:20:54.616Z,97.80
2018-10-18T04:21:54.567Z,97.61
2018-10-18T04:22:54.518Z,97.71
2018-10-18T04:23:54.517Z,97.52
2018-10-18T04:24:54.442Z,97.80
2018-10-18T04:25:54.372Z,97.80
2018-10-18T04:26:54.321Z,98.09
2018-10-18T04:27:54.272Z,97.90
2018-10-18T04:28:54.223Z,97.71
2018-10-18T04:29:54.246Z,98.00
2018-10-18T04:30:54.127Z,97.61
2018-10-18T04:31:54.075Z,97.52
2018-10-18T04:32:54.033Z,98.19
2018-10-18T04:33:53.980Z,97.42
2018-10-18T04:34:53.930Z,97.90
2018-10-18T04:35:53.914Z,97.66
2018-10-18T04:36:53.828Z,97.85
2018-10-18T04:37:53.776Z,98.14
2018-10-18T04:38:53.732Z,97.85
2018-10-18T04:39:53.680Z,98.24
2018-10-18T04:40:53.661Z,98.04
2018-10-18T04:41:53.615Z,98.00
2018-10-18T04:42:53.535Z,98.14
2018-10-18T04:43:53.485Z,97.85
2018-10-18T04:44:53.435Z,97.56
2018-10-18T04:45:53.432Z,97.95
2018-10-18T04:46:53.337Z,97.66
2018-10-18T04:47:53.393Z,97.66
2018-10-18T04:48:53.389Z,97.95
2018-10-18T04:49:53.190Z,97.75
2018-10-18T04:50:53.177Z,97.37
2018-10-18T04:51:53.092Z,97.75
2018-10-18T04:52:53.043Z,97.56
2018-10-18T04:53:52.994Z,98.04
2018-10-18T04:54:52.986Z,97.66
2018-10-18T04:55:52.898Z,97.95
2018-10-18T04:56:52.911Z,97.85
2018-10-18T04:57:52.797Z,98.04
2018-10-18T04:58:52.748Z,97.75
2018-10-18T04:59:52.732Z,97.56
2018-10-18T05:00:52.659Z,97.56
2018-10-18T05:01:52.636Z,97.75
2018-10-18T05:02:52.549Z,97.66
2018-10-18T05:03:52.499Z,97.66
2018-10-18T05:04:52.497Z,97.95
2018-10-18T05:05:52.402Z,97.56
2018-10-18T05:06:52.417Z,97.95
2018-10-18T05:07:52.303Z,97.95
2018-10-18T05:08:52.254Z,98.24
2018-10-18T05:09:52.201Z,98.52
2018-10-18T05:10:52.155Z,97.85
2018-10-18T05:11:52.125Z,98.04
2018-10-18T05:12:52.109Z,98.24
2018-10-18T05:13:52.010Z,97.85
2018-10-18T05:14:51.954Z,98.24
2018-10-18T05:15:51.913Z,98.24
2018-10-18T05:16:51.892Z,98.33
2018-10-18T05:17:51.809Z,97.95
2018-10-18T05:18:51.799Z,98.33
2018-10-18T05:19:51.711Z,98.52
2018-10-18T05:20:51.664Z,98.33
2018-10-18T05:21:51.636Z,98.33
2018-10-18T05:22:51.566Z,98.24
2018-10-18T05:23:51.518Z,98.24
2018-10-18T05:24:51.533Z,98.71
2018-10-18T05:25:51.431Z,98.71
2018-10-18T05:26:51.391Z,98.61
2018-10-18T05:27:51.317Z,98.90
2018-10-18T05:28:51.268Z,98.61
2018-10-18T05:29:51.216Z,98.90
2018-10-18T05:30:51.169Z,98.52
2018-10-18T05:31:51.232Z,99.10
2018-10-18T05:32:51.075Z,99.10
2018-10-18T05:33:51.023Z,99.48
2018-10-18T05:34:50.970Z,99.19
2018-10-18T05:35:50.927Z,99.38
2018-10-18T05:36:50.905Z,99.19
2018-10-18T05:37:50.869Z,99.76
2018-10-18T05:38:50.780Z,99.57
2018-10-18T05:39:50.725Z,99.67
2018-10-18T05:40:50.679Z,99.67
2018-10-18T05:41:50.647Z,99.67
2018-10-18T05:42:50.576Z,99.57
2018-10-18T05:43:50.528Z,99.67
2018-10-18T05:44:50.482Z,99.19
2018-10-18T05:45:50.432Z,99.38
2018-10-18T05:46:50.513Z,99.38
2018-10-18T05:47:50.332Z,99.38
2018-10-18T05:48:50.279Z,99.29
2018-10-18T05:49:50.256Z,99.76
2018-10-18T05:50:50.183Z,99.67
2018-10-18T05:51:50.132Z,99.29
2018-10-18T05:52:50.155Z,99.48
2018-10-18T05:53:50.204Z,99.48
2018-10-18T05:54:49.996Z,99.76
2018-10-18T05:55:49.936Z,99.76
2018-10-18T05:56:49.885Z,99.57
2018-10-18T05:57:49.864Z,99.57
2018-10-18T05:58:49.795Z,99.57
2018-10-18T05:59:49.735Z,99.67
2018-10-18T06:00:49.689Z,99.00
2018-10-18T06:01:49.641Z,99.76
2018-10-18T06:02:49.617Z,99.76
2018-10-18T06:03:49.545Z,99.67
2018-10-18T06:04:49.497Z,99.48
2018-10-18T06:05:49.443Z,99.86
2018-10-18T06:06:49.394Z,99.99
2018-10-18T06:07:49.372Z,99.38
2018-10-18T06:08:49.293Z,99.29
2018-10-18T06:09:49.322Z,99.67
2018-10-18T06:10:49.200Z,99.38
2018-10-18T06:11:49.167Z,99.67
2018-10-18T06:12:49.153Z,99.67
2018-10-18T06:13:49.058Z,99.57
2018-10-18T06:14:49.025Z,99.57
2018-10-18T06:15:48.959Z,99.67
2018-10-18T06:16:48.902Z,99.57
2018-10-18T06:17:48.891Z,99.00
2018-10-18T06:18:48.823Z,99.29
2018-10-18T06:19:48.752Z,98.90
2018-10-18T06:20:48.720Z,99.76
2018-10-18T06:21:48.655Z,99.48
2018-10-18T06:22:48.687Z,99.10
2018-10-18T06:23:48.552Z,99.48
2018-10-18T06:24:48.513Z,99.00
2018-10-18T06:25:48.456Z,99.29
2018-10-18T06:26:48.405Z,99.10
2018-10-18T06:27:48.398Z,99.19
2018-10-18T06:28:48.310Z,99.38
2018-10-18T06:29:48.265Z,98.90
2018-10-18T06:30:48.206Z,98.61
2018-10-18T06:31:48.161Z,98.81
2018-10-18T06:32:48.108Z,98.61
2018-10-18T06:33:48.084Z,98.81
2018-10-18T06:34:48.015Z,98.71
2018-10-18T06:35:47.961Z,98.43
2018-10-18T06:36:47.917Z,98.52
2018-10-18T06:37:47.862Z,98.81
2018-10-18T06:38:47.855Z,99.10
2018-10-18T06:39:47.768Z,99.00
2018-10-18T06:40:47.723Z,99.38
2018-10-18T06:41:47.663Z,99.19
2018-10-18T06:42:47.620Z,98.52
2018-10-18T06:43:47.592Z,98.71
2018-10-18T06:44:47.519Z,98.61
2018-10-18T06:45:47.467Z,98.71
2018-10-18T06:46:47.488Z,98.71
2018-10-18T06:47:47.448Z,98.71
2018-10-18T06:48:47.358Z,98.71
2018-10-18T06:49:47.271Z,99.19
2018-10-18T06:50:47.225Z,98.33
2018-10-18T06:51:47.170Z,98.33
2018-10-18T06:52:47.125Z,98.81
2018-10-18T06:53:47.107Z,98.71
2018-10-18T06:54:47.027Z,98.90
2018-10-18T06:55:46.977Z,98.71
2018-10-18T06:56:46.929Z,98.81
2018-10-18T06:57:46.877Z,98.81
2018-10-18T06:58:46.850Z,98.90
2018-10-18T06:59:46.832Z,98.90
2018-10-18T07:00:46.725Z,99.00
2018-10-18T07:01:46.678Z,98.43
2018-10-18T07:02:46.635Z,98.71
2018-10-18T07:03:46.580Z,98.43
2018-10-18T07:04:46.568Z,98.61
2018-10-18T07:05:46.483Z,98.61
2018-10-18T07:06:46.438Z,98.81
2018-10-18T07:07:46.383Z,99.00
2018-10-18T07:08:46.387Z,98.61
2018-10-18T07:09:46.320Z,98.71
2018-10-18T07:10:46.247Z,98.61
2018-10-18T07:11:46.187Z,98.81
2018-10-18T07:12:46.139Z,98.71
2018-10-18T07:13:46.087Z,98.71
2018-10-18T07:14:46.087Z,98.90
2018-10-18T07:15:45.990Z,98.71
2018-10-18T07:16:45.945Z,98.90
2018-10-18T07:17:45.947Z,98.81
2018-10-18T07:18:45.843Z,98.33
2018-10-18T07:19:45.821Z,98.81
2018-10-18T07:20:45.742Z,98.81
2018-10-18T07:21:45.692Z,99.00
2018-10-18T07:22:45.645Z,99.19
2018-10-18T07:23:45.596Z,98.71
2018-10-18T07:24:45.571Z,99.00
2018-10-18T07:25:45.499Z,98.43
2018-10-18T07:26:45.443Z,98.43
2018-10-18T07:27:45.402Z,98.71
2018-10-18T07:28:45.347Z,98.71
2018-10-18T07:29:45.320Z,99.19
2018-10-18T07:30:45.251Z,98.71
2018-10-18T07:31:45.200Z,99.10
2018-10-18T07:32:45.151Z,99.00
2018-10-18T07:33:45.106Z,99.48
2018-10-18T07:34:45.101Z,99.29
2018-10-18T07:35:45.005Z,99.96
2018-10-18T07:36:44.958Z,99.76
2018-10-18T07:37:44.907Z,99.48
2018-10-18T07:38:44.858Z,99.29
2018-10-18T07:39:44.834Z,99.57
2018-10-18T07:40:44.753Z,99.38
2018-10-18T07:41:44.707Z,99.76
2018-10-18T07:42:44.660Z,99.29
2018-10-18T07:43:44.612Z,99.00
2018-10-18T07:44:44.602Z,99.19
2018-10-18T07:45:44.507Z,99.29
2018-10-18T07:46:44.501Z,99.00
2018-10-18T07:47:44.414Z,99.10
2018-10-18T07:48:44.362Z,99.19
2018-10-18T07:49:44.314Z,98.90
2018-10-18T07:50:44.284Z,99.00
2018-10-18T07:51:44.215Z,98.95
2018-10-18T07:52:44.163Z,98.66
2018-10-18T07:53:44.156Z,98.86
2018-10-18T07:54:44.068Z,98.95
2018-10-18T07:55:44.150Z,99.15
2018-10-18T07:56:43.969Z,98.28
2018-10-18T07:57:43.915Z,98.95
2018-10-18T07:58:43.870Z,98.38
2018-10-18T07:59:43.822Z,97.80
2018-10-18T08:00:43.838Z,98.19
2018-10-18T08:01:43.721Z,98.14
2018-10-18T08:02:43.674Z,98.04
2018-10-18T08:03:43.624Z,98.33
2018-10-18T08:04:43.581Z,99.10
2018-10-18T08:05:43.549Z,98.52
2018-10-18T08:06:43.474Z,98.14
2018-10-18T08:07:43.431Z,99.00
2018-10-18T08:08:43.377Z,98.71
2018-10-18T08:09:43.329Z,98.90
2018-10-18T08:10:43.312Z,99.00
2018-10-18T08:11:43.280Z,98.81
2018-10-18T08:12:43.180Z,98.33
2018-10-18T08:13:43.138Z,98.43
2018-10-18T08:14:43.094Z,98.71
2018-10-18T08:15:43.103Z,99.00
2018-10-18T08:16:43.037Z,98.43
2018-10-18T08:17:42.937Z,98.43
2018-10-18T08:18:42.887Z,99.00
2018-10-18T08:19:42.864Z,98.52
2018-10-18T08:20:42.820Z,98.61
2018-10-18T08:21:42.738Z,98.43
2018-10-18T08:22:42.758Z,98.52
2018-10-18T08:23:42.637Z,98.61
2018-10-18T08:24:42.595Z,98.43
2018-10-18T08:25:42.543Z,98.52
2018-10-18T08:26:42.514Z,98.90
2018-10-18T08:27:42.440Z,98.71
2018-10-18T08:28:42.395Z,98.71
2018-10-18T08:29:42.339Z,98.90
2018-10-18T08:30:42.297Z,99.00
2018-10-18T08:31:42.317Z,98.43
2018-10-18T08:32:42.198Z,98.71
2018-10-18T08:33:42.143Z,98.71
2018-10-18T08:34:42.099Z,99.29
2018-10-18T08:35:42.334Z,99.10
2018-10-18T08:36:42.023Z,98.90
2018-10-18T08:37:41.966Z,98.61
2018-10-18T08:38:41.900Z,98.52
2018-10-18T08:39:41.851Z,98.86
2018-10-18T08:40:41.800Z,98.33
2018-10-18T08:41:41.781Z,98.57
2018-10-18T08:42:41.708Z,98.66
2018-10-18T08:43:41.701Z,98.38
2018-10-18T08:44:41.607Z,98.66
2018-10-18T08:45:41.572Z,98.86
2018-10-18T08:46:41.534Z,98.95
2018-10-18T08:47:41.455Z,98.76
2018-10-18T08:48:41.408Z,98.09
2018-10-18T08:49:41.403Z,97.90
2018-10-18T08:50:41.315Z,97.80
2018-10-18T08:51:41.283Z,98.05
2018-10-18T08:52:41.224Z,97.95
2018-10-18T08:53:41.166Z,97.28
2018-10-18T08:54:41.118Z,96.61
2018-10-18T08:55:41.179Z,96.80
2018-10-18T08:56:41.042Z,97.18
2018-10-18T08:57:41.037Z,96.70
2018-10-18T08:58:40.917Z,96.61
2018-10-18T08:59:40.868Z,96.27
2018-10-18T09:00:40.817Z,96.47
2018-10-18T09:01:40.798Z,95.79
2018-10-18T09:02:40.724Z,96.27
2018-10-18T09:03:40.677Z,95.31
2018-10-18T09:04:40.624Z,95.75
2018-10-18T09:05:40.581Z,95.75
2018-10-18T09:06:40.570Z,95.31
2018-10-18T09:07:40.481Z,95.65
2018-10-18T09:08:40.426Z,96.37
2018-10-18T09:09:40.381Z,95.70
2018-10-18T09:10:40.334Z,95.41
2018-10-18T09:11:40.279Z,95.41
2018-10-18T09:12:40.261Z,94.84
2018-10-18T09:13:40.188Z,94.35
2018-10-18T09:14:40.138Z,94.84
2018-10-18T09:15:40.093Z,94.84
2018-10-18T09:16:40.047Z,94.26
2018-10-18T09:17:40.019Z,94.35
2018-10-18T09:18:39.951Z,94.45
2018-10-18T09:19:39.895Z,94.55
2018-10-18T09:20:39.850Z,95.12
2018-10-18T09:21:39.793Z,94.74
2018-10-18T09:22:39.781Z,94.26
2018-10-18T09:23:39.711Z,94.74
2018-10-18T09:24:39.650Z,93.40
2018-10-18T09:25:39.602Z,93.88
2018-10-18T09:26:39.556Z,93.30
2018-10-18T09:27:39.530Z,93.49
2018-10-18T09:28:39.453Z,93.59
2018-10-18T09:29:39.409Z,93.02
2018-10-18T09:30:39.361Z,93.30
2018-10-18T09:31:39.316Z,93.59
2018-10-18T09:32:39.291Z,93.49
2018-10-18T09:33:39.391Z,92.92
2018-10-18T09:34:39.163Z,93.59
2018-10-18T09:35:39.116Z,93.49
2018-10-18T09:36:39.066Z,93.30
2018-10-18T09:37:39.042Z,93.40
2018-10-18T09:38:38.974Z,93.11
2018-10-18T09:39:38.925Z,92.97
2018-10-18T09:40:38.876Z,92.58
2018-10-18T09:41:38.836Z,92.87
2018-10-18T09:42:38.815Z,92.49
2018-10-18T09:43:38.735Z,92.30
2018-10-18T09:44:38.704Z,92.30
2018-10-18T09:45:38.636Z,92.10
2018-10-18T09:46:38.600Z,92.30
2018-10-18T09:47:38.559Z,92.10
2018-10-18T09:48:38.492Z,91.82
2018-10-18T09:49:38.440Z,92.10
2018-10-18T09:50:38.393Z,92.10
2018-10-18T09:51:38.348Z,92.01
2018-10-18T09:52:38.314Z,91.91
2018-10-18T09:53:38.245Z,92.97
2018-10-18T09:54:38.197Z,92.58
2018-10-18T09:55:38.163Z,91.82
2018-10-18T09:56:38.103Z,92.06
2018-10-18T09:57:38.076Z,92.54
2018-10-18T09:58:38.007Z,92.82
2018-10-18T09:59:37.955Z,92.54
2018-10-18T10:00:37.911Z,92.54
2018-10-18T10:01:37.863Z,92.44
2018-10-18T10:02:37.834Z,92.44
2018-10-18T10:03:37.766Z,93.16
2018-10-18T10:04:37.722Z,92.97
2018-10-18T10:05:37.663Z,92.77
2018-10-18T10:06:37.618Z,92.87
2018-10-18T10:07:37.599Z,91.82
2018-10-18T10:08:37.519Z,91.96
2018-10-18T10:09:37.473Z,92.05
2018-10-18T10:10:37.422Z,90.90
2018-10-18T10:11:37.430Z,90.81
2018-10-18T10:12:37.353Z,91.09
2018-10-18T10:13:37.347Z,90.52
2018-10-18T10:14:37.234Z,91.00
2018-10-18T10:15:37.191Z,91.48
2018-10-18T10:16:37.133Z,91.24
2018-10-18T10:17:37.175Z,92.30
2018-10-18T10:18:37.036Z,92.01
2018-10-18T10:19:36.993Z,91.82
2018-10-18T10:20:36.940Z,92.77
2018-10-18T10:21:36.895Z,92.73
2018-10-18T10:22:36.871Z,93.21
2018-10-18T10:23:36.793Z,92.35
2018-10-18T10:24:36.804Z,92.92
2018-10-18T10:25:36.703Z,92.73
2018-10-18T10:26:36.653Z,92.06
2018-10-18T10:27:36.642Z,92.25
2018-10-18T10:28:36.560Z,92.73
2018-10-18T10:29:36.506Z,92.54
2018-10-18T10:30:36.460Z,92.63
2018-10-18T10:31:36.410Z,93.06
2018-10-18T10:32:36.366Z,91.91
2018-10-18T10:33:36.383Z,91.91
2018-10-18T10:34:36.266Z,91.91
2018-10-18T10:35:36.237Z,91.34
2018-10-18T10:36:36.169Z,91.34
2018-10-18T10:37:36.119Z,90.81
2018-10-18T10:38:36.101Z,90.33
2018-10-18T10:39:36.022Z,90.61
2018-10-18T10:40:35.969Z,90.42
2018-10-18T10:41:35.928Z,90.14
2018-10-18T10:42:35.896Z,90.61
2018-10-18T10:43:35.853Z,91.00
2018-10-18T10:44:35.856Z,90.52
2018-10-18T10:45:35.820Z,90.71
2018-10-18T10:46:35.683Z,90.71
2018-10-18T10:47:35.660Z,90.42
2018-10-18T10:48:35.610Z,90.23
2018-10-18T10:49:35.533Z,89.47
2018-10-18T10:50:35.490Z,90.33
2018-10-18T10:51:35.441Z,89.94
2018-10-18T10:52:35.418Z,90.42
2018-10-18T10:53:35.371Z,89.94
2018-10-18T10:54:35.297Z,90.23
2018-10-18T10:55:35.245Z,90.23
2018-10-18T10:56:35.205Z,90.04
2018-10-18T10:57:35.152Z,90.42
2018-10-18T10:58:35.127Z,89.65
2018-10-18T10:59:35.062Z,90.14
2018-10-18T11:00:35.014Z,90.42
2018-10-18T11:01:34.963Z,89.75
2018-10-18T11:02:34.913Z,89.27
2018-10-18T11:03:34.927Z,89.56
2018-10-18T11:04:34.818Z,89.08
2018-10-18T11:05:34.769Z,89.18
2018-10-18T11:06:34.725Z,89.27
2018-10-18T11:07:34.676Z,88.70
2018-10-18T11:08:34.625Z,89.56
2018-10-18T11:09:34.992Z,89.65
2018-10-18T11:10:34.528Z,89.37
2018-10-18T11:11:34.484Z,90.52
2018-10-18T11:12:34.484Z,89.47
2018-10-18T11:13:34.380Z,89.37
2018-10-18T11:14:34.377Z,88.84
2018-10-18T11:15:34.284Z,89.22
2018-10-18T11:16:34.254Z,89.03
2018-10-18T11:17:34.194Z,88.26
2018-10-18T11:18:34.144Z,88.07
2018-10-18T11:19:34.118Z,87.88
2018-10-18T11:20:34.047Z,87.40
2018-10-18T11:21:34.036Z,88.07
2018-10-18T11:22:33.955Z,87.88
2018-10-18T11:23:33.901Z,87.98
2018-10-18T11:24:33.928Z,88.26
2018-10-18T11:25:33.808Z,87.30
2018-10-18T11:26:33.755Z,87.40
2018-10-18T11:27:33.709Z,86.82
2018-10-18T11:28:33.676Z,87.21
2018-10-18T11:29:33.638Z,87.01
2018-10-18T11:30:33.566Z,86.92
2018-10-18T11:31:33.520Z,86.54
2018-10-18T11:32:33.475Z,85.96
2018-10-18T11:33:33.417Z,87.05
2018-10-18T11:34:33.460Z,86.48
2018-10-18T11:35:33.318Z,86.29
2018-10-18T11:36:33.270Z,86.10
2018-10-18T11:37:33.222Z,86.10
2018-10-18T11:38:33.172Z,86.38
2018-10-18T11:39:33.144Z,86.58
2018-10-18T11:40:33.083Z,87.05
2018-10-18T11:41:33.035Z,86.77
2018-10-18T11:42:33.072Z,86.29
2018-10-18T11:43:32.932Z,86.54
2018-10-18T11:44:32.912Z,87.11
2018-10-18T11:45:32.834Z,87.49
2018-10-18T11:46:32.785Z,87.68
2018-10-18T11:47:32.740Z,87.98
2018-10-18T11:48:32.696Z,87.88
2018-10-18T11:49:32.678Z,88.35
2018-10-18T11:50:32.597Z,88.31
2018-10-18T11:51:32.661Z,88.02
2018-10-18T11:52:32.501Z,88.12
2018-10-18T11:53:32.451Z,88.31
2018-10-18T11:54:32.409Z,88.60
2018-10-18T11:55:32.385Z,88.26
2018-10-18T11:56:32.307Z,88.45
2018-10-18T11:57:32.262Z,88.07
2018-10-18T11:58:32.213Z,88.22
2018-10-18T11:59:32.161Z,88.07
2018-10-18T12:00:32.143Z,88.60
2018-10-18T12:01:32.075Z,88.79
2018-10-18T12:02:32.048Z,88.89
2018-10-18T12:03:31.975Z,89.27
2018-10-18T12:04:31.924Z,89.75
2018-10-18T12:05:31.901Z,89.94
2018-10-18T12:06:31.830Z,89.65
2018-10-18T12:07:31.790Z,90.61
2018-10-18T12:08:31.728Z,90.14
2018-10-18T12:09:31.679Z,90.42
2018-10-18T12:10:31.657Z,90.52
2018-10-18T12:11:31.588Z,91.00
2018-10-18T12:12:31.544Z,90.52
2018-10-18T12:13:31.491Z,90.61
2018-10-18T12:14:31.457Z,91.00
2018-10-18T12:15:31.429Z,91.48
2018-10-18T12:16:31.349Z,91.48
2018-10-18T12:17:31.298Z,91.86
2018-10-18T12:18:31.247Z,92.10
2018-10-18T12:19:31.199Z,91.82
2018-10-18T12:20:31.154Z,92.97
2018-10-18T12:21:31.125Z,92.87
2018-10-18T12:22:31.056Z,93.73
2018-10-18T12:23:31.014Z,93.83
2018-10-18T12:24:30.956Z,94.45
2018-10-18T12:25:30.921Z,94.74
2018-10-18T12:26:30.889Z,95.31
2018-10-18T12:27:30.810Z,95.03
2018-10-18T12:28:30.763Z,95.51
2018-10-18T12:29:30.718Z,95.70
2018-10-18T12:30:30.665Z,95.79
2018-10-18T12:31:30.647Z,96.18
2018-10-18T12:32:30.569Z,96.75
2018-10-18T12:33:30.518Z,96.84
2018-10-18T12:34:30.472Z,97.52
2018-10-18T12:35:30.423Z,97.52
2018-10-18T12:36:30.402Z,97.61
2018-10-18T12:37:30.339Z,98.19
2018-10-18T12:38:30.280Z,97.80
2018-10-18T12:39:30.326Z,98.19
2018-10-18T12:40:30.247Z,97.90
2018-10-18T12:41:30.248Z,97.90
2018-10-18T12:42:30.080Z,98.38
2018-10-18T12:43:30.036Z,98.86
2018-10-18T12:44:29.986Z,98.10
2018-10-18T12:45:29.937Z,97.80
2018-10-18T12:46:29.914Z,98.10
2018-10-18T12:47:29.842Z,97.56
2018-10-18T12:48:29.845Z,98.76
2018-10-18T12:49:29.745Z,98.05
2018-10-18T12:50:29.692Z,98.57
2018-10-18T12:51:29.667Z,97.85